sensor_id;sensor_type;location;lat;lon;timestamp;pressure;altitude;pressure_sealevel;temperature;humidity
13312;BME280;34033;48.672;9.376;2023-07-28T00:00:36;97826.16;;;19.27;93.18
13312;BME280;34033;48.672;9.376;2023-07-28T00:03:01;97826.34;;;19.33;92.55
13312;BME280;34033;48.672;9.376;2023-07-28T00:05:26;97827.94;;;19.34;91.83
13312;BME280;34033;48.672;9.376;2023-07-28T00:07:51;97828.25;;;19.36;91.12
13312;BME280;34033;48.672;9.376;2023-07-28T00:10:17;97822.56;;;19.36;89.97
13312;BME280;34033;48.672;9.376;2023-07-28T00:12:43;97818.19;;;19.35;89.34
13312;BME280;34033;48.672;9.376;2023-07-28T00:15:09;97817.41;;;19.34;88.91
13312;BME280;34033;48.672;9.376;2023-07-28T00:17:35;97820.69;;;19.33;88.27
13312;BME280;34033;48.672;9.376;2023-07-28T00:20:00;97827.75;;;19.28;88.25
13312;BME280;34033;48.672;9.376;2023-07-28T00:22:25;97835.13;;;19.26;88.48
13312;BME280;34033;48.672;9.376;2023-07-28T00:24:51;97829.72;;;19.18;88.50
13312;BME280;34033;48.672;9.376;2023-07-28T00:27:16;97836.13;;;19.10;88.94
13312;BME280;34033;48.672;9.376;2023-07-28T00:29:41;97830.25;;;19.04;89.20
13312;BME280;34033;48.672;9.376;2023-07-28T00:32:07;97833.91;;;19.05;89.51
13312;BME280;34033;48.672;9.376;2023-07-28T00:34:32;97831.50;;;19.03;89.45
13312;BME280;34033;48.672;9.376;2023-07-28T00:36:57;97835.94;;;19.04;89.08
13312;BME280;34033;48.672;9.376;2023-07-28T00:39:23;97829.81;;;19.06;88.91
13312;BME280;34033;48.672;9.376;2023-07-28T00:41:48;97835.34;;;19.09;88.79
13312;BME280;34033;48.672;9.376;2023-07-28T00:44:13;97833.28;;;19.10;88.54
13312;BME280;34033;48.672;9.376;2023-07-28T00:46:41;97827.97;;;19.12;88.16
13312;BME280;34033;48.672;9.376;2023-07-28T00:49:06;97829.66;;;19.09;88.29
13312;BME280;34033;48.672;9.376;2023-07-28T00:51:31;97828.09;;;19.08;88.12
13312;BME280;34033;48.672;9.376;2023-07-28T00:53:57;97825.41;;;19.05;88.14
13312;BME280;34033;48.672;9.376;2023-07-28T00:56:24;97833.56;;;19.03;88.35
13312;BME280;34033;48.672;9.376;2023-07-28T00:58:50;97836.06;;;19.01;88.64
13312;BME280;34033;48.672;9.376;2023-07-28T01:01:16;97834.16;;;18.98;88.74
13312;BME280;34033;48.672;9.376;2023-07-28T01:03:42;97829.88;;;18.93;88.71
13312;BME280;34033;48.672;9.376;2023-07-28T01:06:20;97830.81;;;18.90;88.41
13312;BME280;34033;48.672;9.376;2023-07-28T01:08:57;97830.00;;;18.90;88.46
13312;BME280;34033;48.672;9.376;2023-07-28T01:11:24;97836.78;;;18.92;88.21
13312;BME280;34033;48.672;9.376;2023-07-28T01:13:49;97830.81;;;18.90;87.95
13312;BME280;34033;48.672;9.376;2023-07-28T01:16:15;97835.69;;;18.90;87.67
13312;BME280;34033;48.672;9.376;2023-07-28T01:18:40;97828.78;;;18.91;87.21
13312;BME280;34033;48.672;9.376;2023-07-28T01:21:08;97826.84;;;18.88;87.10
13312;BME280;34033;48.672;9.376;2023-07-28T01:26:09;97818.59;;;18.81;87.36
13312;BME280;34033;48.672;9.376;2023-07-28T01:28:35;97824.75;;;18.79;87.58
13312;BME280;34033;48.672;9.376;2023-07-28T01:31:04;97819.88;;;18.80;87.13
13312;BME280;34033;48.672;9.376;2023-07-28T01:33:30;97817.50;;;18.78;87.33
13312;BME280;34033;48.672;9.376;2023-07-28T01:35:56;97818.69;;;18.68;87.46
13312;BME280;34033;48.672;9.376;2023-07-28T01:38:21;97816.09;;;18.61;88.11
13312;BME280;34033;48.672;9.376;2023-07-28T01:40:47;97820.06;;;18.51;88.44
13312;BME280;34033;48.672;9.376;2023-07-28T01:43:12;97817.84;;;18.46;88.69
13312;BME280;34033;48.672;9.376;2023-07-28T01:45:38;97823.50;;;18.46;88.50
13312;BME280;34033;48.672;9.376;2023-07-28T01:48:04;97816.25;;;18.45;88.76
13312;BME280;34033;48.672;9.376;2023-07-28T01:50:29;97818.63;;;18.46;88.55
13312;BME280;34033;48.672;9.376;2023-07-28T01:52:55;97817.84;;;18.46;88.36
13312;BME280;34033;48.672;9.376;2023-07-28T01:55:20;97820.31;;;18.44;87.88
13312;BME280;34033;48.672;9.376;2023-07-28T01:57:57;97809.00;;;18.44;87.86
13312;BME280;34033;48.672;9.376;2023-07-28T02:00:23;97800.66;;;18.40;87.94
13312;BME280;34033;48.672;9.376;2023-07-28T02:02:49;97798.63;;;18.41;87.81
13312;BME280;34033;48.672;9.376;2023-07-28T02:05:14;97786.34;;;18.44;87.54
13312;BME280;34033;48.672;9.376;2023-07-28T02:07:40;97776.28;;;18.43;87.43
13312;BME280;34033;48.672;9.376;2023-07-28T02:10:05;97781.63;;;18.41;87.35
13312;BME280;34033;48.672;9.376;2023-07-28T02:12:31;97787.16;;;18.44;86.62
13312;BME280;34033;48.672;9.376;2023-07-28T02:14:56;97787.16;;;18.44;86.72
13312;BME280;34033;48.672;9.376;2023-07-28T02:17:21;97782.53;;;18.38;87.46
13312;BME280;34033;48.672;9.376;2023-07-28T02:19:47;97783.47;;;18.34;87.16
13312;BME280;34033;48.672;9.376;2023-07-28T02:22:12;97787.53;;;18.33;87.27
13312;BME280;34033;48.672;9.376;2023-07-28T02:24:38;97783.56;;;18.31;87.21
13312;BME280;34033;48.672;9.376;2023-07-28T02:27:03;97786.28;;;18.34;86.66
13312;BME280;34033;48.672;9.376;2023-07-28T02:29:29;97786.28;;;18.34;86.67
13312;BME280;34033;48.672;9.376;2023-07-28T02:31:54;97788.78;;;18.32;86.86
13312;BME280;34033;48.672;9.376;2023-07-28T02:34:19;97785.75;;;18.27;86.73
13312;BME280;34033;48.672;9.376;2023-07-28T02:36:45;97790.41;;;18.21;87.12
13312;BME280;34033;48.672;9.376;2023-07-28T02:39:10;97788.94;;;18.16;87.43
13312;BME280;34033;48.672;9.376;2023-07-28T02:41:35;97791.91;;;18.13;87.67
13312;BME280;34033;48.672;9.376;2023-07-28T02:44:01;97788.53;;;18.05;87.98
13312;BME280;34033;48.672;9.376;2023-07-28T02:46:26;97787.63;;;18.08;88.08
13312;BME280;34033;48.672;9.376;2023-07-28T02:48:51;97792.94;;;18.06;87.84
13312;BME280;34033;48.672;9.376;2023-07-28T02:51:17;97800.75;;;18.02;88.28
13312;BME280;34033;48.672;9.376;2023-07-28T02:53:42;97802.56;;;17.96;88.63
13312;BME280;34033;48.672;9.376;2023-07-28T02:56:07;97809.13;;;17.93;89.08
13312;BME280;34033;48.672;9.376;2023-07-28T02:58:33;97809.25;;;17.89;89.20
13312;BME280;34033;48.672;9.376;2023-07-28T03:00:58;97810.28;;;17.83;89.50
13312;BME280;34033;48.672;9.376;2023-07-28T03:03:24;97807.94;;;17.69;90.27
13312;BME280;34033;48.672;9.376;2023-07-28T03:05:51;97812.00;;;17.68;90.24
13312;BME280;34033;48.672;9.376;2023-07-28T03:08:17;97816.41;;;17.69;90.47
13312;BME280;34033;48.672;9.376;2023-07-28T03:10:43;97820.34;;;17.71;91.50
13312;BME280;34033;48.672;9.376;2023-07-28T03:13:08;97833.25;;;17.72;90.54
13312;BME280;34033;48.672;9.376;2023-07-28T03:15:34;97833.69;;;17.71;90.47
13312;BME280;34033;48.672;9.376;2023-07-28T03:17:59;97835.06;;;17.66;90.83
13312;BME280;34033;48.672;9.376;2023-07-28T03:20:24;97837.53;;;17.64;91.17
13312;BME280;34033;48.672;9.376;2023-07-28T03:22:50;97846.47;;;17.63;91.11
13312;BME280;34033;48.672;9.376;2023-07-28T03:25:15;97856.88;;;17.66;91.42
13312;BME280;34033;48.672;9.376;2023-07-28T03:27:41;97854.50;;;17.77;91.18
13312;BME280;34033;48.672;9.376;2023-07-28T03:30:06;97856.97;;;17.87;90.45
13312;BME280;34033;48.672;9.376;2023-07-28T03:32:35;97851.09;;;18.07;89.32
13312;BME280;34033;48.672;9.376;2023-07-28T03:35:01;97847.78;;;18.21;88.18
13312;BME280;34033;48.672;9.376;2023-07-28T03:37:26;97851.38;;;18.34;87.24
13312;BME280;34033;48.672;9.376;2023-07-28T03:39:52;97857.81;;;18.35;86.73
13312;BME280;34033;48.672;9.376;2023-07-28T03:42:17;97855.22;;;18.41;86.03
13312;BME280;34033;48.672;9.376;2023-07-28T03:44:42;97864.28;;;18.36;86.47
13312;BME280;34033;48.672;9.376;2023-07-28T03:47:08;97870.97;;;18.29;86.70
13312;BME280;34033;48.672;9.376;2023-07-28T03:49:33;97865.63;;;18.31;86.54
13312;BME280;34033;48.672;9.376;2023-07-28T03:51:59;97860.88;;;18.41;86.09
13312;BME280;34033;48.672;9.376;2023-07-28T03:54:24;97862.09;;;18.52;85.06
13312;BME280;34033;48.672;9.376;2023-07-28T03:56:50;97854.03;;;18.51;84.78
13312;BME280;34033;48.672;9.376;2023-07-28T03:59:15;97863.78;;;18.50;84.51
13312;BME280;34033;48.672;9.376;2023-07-28T04:01:40;97854.28;;;18.44;85.00
13312;BME280;34033;48.672;9.376;2023-07-28T04:04:06;97858.34;;;18.43;85.14
13312;BME280;34033;48.672;9.376;2023-07-28T04:06:46;97863.34;;;18.39;85.62
13312;BME280;34033;48.672;9.376;2023-07-28T04:09:13;97863.34;;;18.39;85.63
13312;BME280;34033;48.672;9.376;2023-07-28T04:11:39;97867.41;;;18.38;86.25
13312;BME280;34033;48.672;9.376;2023-07-28T04:14:04;97866.75;;;18.33;86.36
13312;BME280;34033;48.672;9.376;2023-07-28T04:16:30;97869.94;;;18.36;86.74
13312;BME280;34033;48.672;9.376;2023-07-28T04:18:56;97864.91;;;18.52;85.90
13312;BME280;34033;48.672;9.376;2023-07-28T04:21:21;97868.66;;;18.84;83.60
13312;BME280;34033;48.672;9.376;2023-07-28T04:23:46;97875.66;;;19.13;81.88
13312;BME280;34033;48.672;9.376;2023-07-28T04:26:12;97882.44;;;19.38;79.75
13312;BME280;34033;48.672;9.376;2023-07-28T04:28:37;97883.53;;;19.18;81.07
13312;BME280;34033;48.672;9.376;2023-07-28T04:31:02;97883.25;;;19.16;81.32
13312;BME280;34033;48.672;9.376;2023-07-28T04:33:28;97878.22;;;18.99;82.59
13312;BME280;34033;48.672;9.376;2023-07-28T04:35:53;97876.13;;;18.90;83.26
13312;BME280;34033;48.672;9.376;2023-07-28T04:38:18;97876.38;;;19.05;82.69
13312;BME280;34033;48.672;9.376;2023-07-28T04:40:44;97867.34;;;18.97;83.40
13312;BME280;34033;48.672;9.376;2023-07-28T04:43:10;97864.44;;;18.88;84.47
13312;BME280;34033;48.672;9.376;2023-07-28T04:45:35;97872.88;;;18.79;85.25
13312;BME280;34033;48.672;9.376;2023-07-28T04:48:01;97868.84;;;18.67;86.41
13312;BME280;34033;48.672;9.376;2023-07-28T04:50:26;97871.34;;;18.65;86.64
13312;BME280;34033;48.672;9.376;2023-07-28T04:52:52;97857.63;;;18.64;86.83
13312;BME280;34033;48.672;9.376;2023-07-28T04:55:17;97868.44;;;18.56;87.42
13312;BME280;34033;48.672;9.376;2023-07-28T04:57:43;97866.47;;;18.53;88.02
13312;BME280;34033;48.672;9.376;2023-07-28T05:00:08;97865.38;;;18.51;88.59
13312;BME280;34033;48.672;9.376;2023-07-28T05:02:34;97872.06;;;18.57;88.26
13312;BME280;34033;48.672;9.376;2023-07-28T05:04:59;97867.50;;;18.59;88.45
13312;BME280;34033;48.672;9.376;2023-07-28T05:07:25;97868.19;;;18.63;88.56
13312;BME280;34033;48.672;9.376;2023-07-28T05:09:50;97870.53;;;18.65;88.75
13312;BME280;34033;48.672;9.376;2023-07-28T05:12:15;97870.88;;;18.67;88.71
13312;BME280;34033;48.672;9.376;2023-07-28T05:14:41;97872.47;;;18.68;88.55
13312;BME280;34033;48.672;9.376;2023-07-28T05:17:06;97879.53;;;18.85;85.33
13312;BME280;34033;48.672;9.376;2023-07-28T05:19:31;97877.44;;;18.98;84.93
13312;BME280;34033;48.672;9.376;2023-07-28T05:21:57;97878.03;;;18.93;86.18
13312;BME280;34033;48.672;9.376;2023-07-28T05:24:22;97879.41;;;18.89;87.44
13312;BME280;34033;48.672;9.376;2023-07-28T05:26:48;97888.94;;;18.82;88.48
13312;BME280;34033;48.672;9.376;2023-07-28T05:29:13;97874.13;;;18.78;89.61
13312;BME280;34033;48.672;9.376;2023-07-28T05:31:38;97886.25;;;18.79;90.08
13312;BME280;34033;48.672;9.376;2023-07-28T05:34:04;97880.69;;;18.75;90.32
13312;BME280;34033;48.672;9.376;2023-07-28T05:36:29;97885.75;;;18.80;89.83
13312;BME280;34033;48.672;9.376;2023-07-28T05:38:54;97882.88;;;18.93;88.20
13312;BME280;34033;48.672;9.376;2023-07-28T05:41:21;97882.38;;;19.07;84.97
13312;BME280;34033;48.672;9.376;2023-07-28T05:43:46;97880.41;;;19.16;85.82
13312;BME280;34033;48.672;9.376;2023-07-28T05:46:12;97886.06;;;19.16;87.39
13312;BME280;34033;48.672;9.376;2023-07-28T05:48:37;97889.69;;;19.17;88.17
13312;BME280;34033;48.672;9.376;2023-07-28T05:51:02;97890.50;;;19.17;88.92
13312;BME280;34033;48.672;9.376;2023-07-28T05:53:28;97884.03;;;19.17;89.51
13312;BME280;34033;48.672;9.376;2023-07-28T05:55:53;97880.84;;;19.15;90.28
13312;BME280;34033;48.672;9.376;2023-07-28T05:58:19;97893.91;;;19.12;91.04
13312;BME280;34033;48.672;9.376;2023-07-28T06:00:44;97893.56;;;19.10;91.97
13312;BME280;34033;48.672;9.376;2023-07-28T06:03:10;97891.41;;;19.14;88.70
13312;BME280;34033;48.672;9.376;2023-07-28T06:05:38;97905.38;;;19.31;88.30
13312;BME280;34033;48.672;9.376;2023-07-28T06:08:04;97910.16;;;19.43;87.11
13312;BME280;34033;48.672;9.376;2023-07-28T06:10:29;97907.50;;;19.61;84.04
13312;BME280;34033;48.672;9.376;2023-07-28T06:12:54;97913.47;;;19.63;85.75
13312;BME280;34033;48.672;9.376;2023-07-28T06:15:20;97911.53;;;19.51;87.45
13312;BME280;34033;48.672;9.376;2023-07-28T06:17:45;97914.97;;;19.46;87.83
13312;BME280;34033;48.672;9.376;2023-07-28T06:20:11;97918.09;;;19.48;88.65
13312;BME280;34033;48.672;9.376;2023-07-28T06:22:36;97922.44;;;19.40;89.10
13312;BME280;34033;48.672;9.376;2023-07-28T06:25:01;97915.13;;;19.30;89.46
13312;BME280;34033;48.672;9.376;2023-07-28T06:27:27;97919.03;;;19.23;89.63
13312;BME280;34033;48.672;9.376;2023-07-28T06:29:53;97923.91;;;19.23;90.25
13312;BME280;34033;48.672;9.376;2023-07-28T06:32:18;97918.44;;;19.28;90.90
13312;BME280;34033;48.672;9.376;2023-07-28T06:34:45;97917.03;;;19.33;91.36
13312;BME280;34033;48.672;9.376;2023-07-28T06:37:11;97921.78;;;19.36;91.22
13312;BME280;34033;48.672;9.376;2023-07-28T06:39:36;97935.50;;;19.37;91.30
13312;BME280;34033;48.672;9.376;2023-07-28T06:42:01;97937.66;;;19.33;91.11
13312;BME280;34033;48.672;9.376;2023-07-28T06:44:27;97944.59;;;19.32;91.72
13312;BME280;34033;48.672;9.376;2023-07-28T06:46:52;97941.91;;;19.29;92.21
13312;BME280;34033;48.672;9.376;2023-07-28T06:49:18;97957.41;;;19.24;92.29
13312;BME280;34033;48.672;9.376;2023-07-28T06:51:43;97948.00;;;19.27;92.43
13312;BME280;34033;48.672;9.376;2023-07-28T06:54:08;97946.28;;;19.30;92.34
13312;BME280;34033;48.672;9.376;2023-07-28T06:56:37;97954.41;;;19.40;92.82
13312;BME280;34033;48.672;9.376;2023-07-28T06:59:03;97959.03;;;19.47;93.56
13312;BME280;34033;48.672;9.376;2023-07-28T07:01:28;97963.00;;;19.49;93.53
13312;BME280;34033;48.672;9.376;2023-07-28T07:03:54;97970.38;;;19.47;93.45
13312;BME280;34033;48.672;9.376;2023-07-28T07:06:20;97964.81;;;19.43;93.93
13312;BME280;34033;48.672;9.376;2023-07-28T07:08:46;97963.56;;;19.44;95.03
13312;BME280;34033;48.672;9.376;2023-07-28T07:11:11;97952.69;;;19.43;95.69
13312;BME280;34033;48.672;9.376;2023-07-28T07:13:37;97955.41;;;19.46;95.64
13312;BME280;34033;48.672;9.376;2023-07-28T07:16:02;97949.63;;;19.50;95.46
13312;BME280;34033;48.672;9.376;2023-07-28T07:18:27;97962.75;;;19.56;94.97
13312;BME280;34033;48.672;9.376;2023-07-28T07:20:53;97967.94;;;19.58;95.27
13312;BME280;34033;48.672;9.376;2023-07-28T07:23:18;97979.63;;;19.60;95.30
13312;BME280;34033;48.672;9.376;2023-07-28T07:25:43;97966.44;;;19.66;95.08
13312;BME280;34033;48.672;9.376;2023-07-28T07:28:09;97963.34;;;19.73;95.20
13312;BME280;34033;48.672;9.376;2023-07-28T07:30:34;97959.41;;;19.80;93.78
13312;BME280;34033;48.672;9.376;2023-07-28T07:33:00;97973.78;;;19.85;93.15
13312;BME280;34033;48.672;9.376;2023-07-28T07:35:25;97970.47;;;19.87;93.70
13312;BME280;34033;48.672;9.376;2023-07-28T07:37:51;97967.66;;;19.87;93.61
13312;BME280;34033;48.672;9.376;2023-07-28T07:40:16;97977.28;;;19.89;93.60
13312;BME280;34033;48.672;9.376;2023-07-28T07:42:45;97969.28;;;19.97;93.58
13312;BME280;34033;48.672;9.376;2023-07-28T07:45:11;97983.03;;;20.08;93.54
13312;BME280;34033;48.672;9.376;2023-07-28T07:47:38;97990.19;;;20.12;93.49
13312;BME280;34033;48.672;9.376;2023-07-28T07:50:05;97987.38;;;20.21;90.85
13312;BME280;34033;48.672;9.376;2023-07-28T07:52:31;97986.53;;;20.33;91.39
13312;BME280;34033;48.672;9.376;2023-07-28T07:54:56;97985.13;;;20.47;90.09
13312;BME280;34033;48.672;9.376;2023-07-28T07:57:21;97984.84;;;20.54;88.99
13312;BME280;34033;48.672;9.376;2023-07-28T07:59:47;97987.88;;;20.60;90.10
13312;BME280;34033;48.672;9.376;2023-07-28T08:02:12;97986.44;;;20.64;89.48
13312;BME280;34033;48.672;9.376;2023-07-28T08:04:37;97988.84;;;20.66;89.18
13312;BME280;34033;48.672;9.376;2023-07-28T08:07:03;97988.97;;;20.62;89.21
13312;BME280;34033;48.672;9.376;2023-07-28T08:09:30;97995.13;;;20.61;89.57
13312;BME280;34033;48.672;9.376;2023-07-28T08:11:55;97985.94;;;20.57;88.95
13312;BME280;34033;48.672;9.376;2023-07-28T08:14:21;97992.41;;;20.57;89.91
13312;BME280;34033;48.672;9.376;2023-07-28T08:16:46;97997.78;;;20.55;91.04
13312;BME280;34033;48.672;9.376;2023-07-28T08:19:12;97994.63;;;20.53;90.76
13312;BME280;34033;48.672;9.376;2023-07-28T08:21:37;97996.38;;;20.51;89.06
13312;BME280;34033;48.672;9.376;2023-07-28T08:24:03;98000.31;;;20.53;88.73
13312;BME280;34033;48.672;9.376;2023-07-28T08:26:29;98003.94;;;20.54;87.91
13312;BME280;34033;48.672;9.376;2023-07-28T08:28:55;98007.75;;;20.60;87.11
13312;BME280;34033;48.672;9.376;2023-07-28T08:31:20;98007.31;;;20.70;86.98
13312;BME280;34033;48.672;9.376;2023-07-28T08:33:46;98013.97;;;20.86;86.44
13312;BME280;34033;48.672;9.376;2023-07-28T08:36:12;98015.25;;;21.03;85.46
13312;BME280;34033;48.672;9.376;2023-07-28T08:38:37;98006.94;;;21.17;84.50
13312;BME280;34033;48.672;9.376;2023-07-28T08:41:03;98012.19;;;21.37;79.98
13312;BME280;34033;48.672;9.376;2023-07-28T08:43:30;98017.53;;;21.62;80.99
13312;BME280;34033;48.672;9.376;2023-07-28T08:45:56;98013.09;;;21.80;76.05
13312;BME280;34033;48.672;9.376;2023-07-28T08:48:22;98014.84;;;21.95;79.54
13312;BME280;34033;48.672;9.376;2023-07-28T08:50:48;98012.59;;;22.09;78.61
13312;BME280;34033;48.672;9.376;2023-07-28T08:53:13;98020.66;;;22.10;76.82
13312;BME280;34033;48.672;9.376;2023-07-28T08:55:39;98009.75;;;22.09;76.17
13312;BME280;34033;48.672;9.376;2023-07-28T08:58:18;98014.16;;;22.19;76.20
13312;BME280;34033;48.672;9.376;2023-07-28T09:00:47;98017.47;;;22.26;76.59
13312;BME280;34033;48.672;9.376;2023-07-28T09:03:15;98007.75;;;22.42;76.27
13312;BME280;34033;48.672;9.376;2023-07-28T09:05:42;98012.59;;;22.51;75.36
13312;BME280;34033;48.672;9.376;2023-07-28T09:08:07;98011.03;;;22.50;74.47
13312;BME280;34033;48.672;9.376;2023-07-28T09:10:53;97998.03;;;22.58;73.84
13312;BME280;34033;48.672;9.376;2023-07-28T09:13:19;97999.00;;;22.55;73.02
13312;BME280;34033;48.672;9.376;2023-07-28T09:15:45;98001.13;;;22.69;73.90
13312;BME280;34033;48.672;9.376;2023-07-28T09:18:14;97994.56;;;22.86;71.92
13312;BME280;34033;48.672;9.376;2023-07-28T09:20:41;97998.75;;;23.00;71.62
13312;BME280;34033;48.672;9.376;2023-07-28T09:23:07;97999.44;;;23.19;69.83
13312;BME280;34033;48.672;9.376;2023-07-28T09:25:37;97998.31;;;23.40;69.67
13312;BME280;34033;48.672;9.376;2023-07-28T09:28:03;97995.59;;;23.46;69.69
13312;BME280;34033;48.672;9.376;2023-07-28T09:30:47;97987.69;;;23.41;68.16
13312;BME280;34033;48.672;9.376;2023-07-28T09:33:12;97995.34;;;23.35;67.96
13312;BME280;34033;48.672;9.376;2023-07-28T09:35:49;98007.00;;;23.22;70.34
13312;BME280;34033;48.672;9.376;2023-07-28T09:38:15;97997.41;;;23.10;71.57
13312;BME280;34033;48.672;9.376;2023-07-28T09:40:42;98000.56;;;22.88;72.64
13312;BME280;34033;48.672;9.376;2023-07-28T09:43:08;97997.78;;;22.79;71.03
13312;BME280;34033;48.672;9.376;2023-07-28T09:45:35;97996.50;;;22.80;70.19
13312;BME280;34033;48.672;9.376;2023-07-28T09:48:02;97990.63;;;22.84;70.02
13312;BME280;34033;48.672;9.376;2023-07-28T09:50:31;97988.34;;;22.97;69.66
13312;BME280;34033;48.672;9.376;2023-07-28T09:52:59;97990.09;;;23.18;69.90
13312;BME280;34033;48.672;9.376;2023-07-28T09:55:26;97988.56;;;23.32;66.71
13312;BME280;34033;48.672;9.376;2023-07-28T09:57:55;97989.56;;;23.44;66.70
13312;BME280;34033;48.672;9.376;2023-07-28T10:00:21;98000.16;;;23.67;65.80
13312;BME280;34033;48.672;9.376;2023-07-28T10:02:47;97981.50;;;23.95;65.51
13312;BME280;34033;48.672;9.376;2023-07-28T10:05:14;97995.38;;;24.02;63.60
13312;BME280;34033;48.672;9.376;2023-07-28T10:07:44;97994.50;;;23.96;62.15
13312;BME280;34033;48.672;9.376;2023-07-28T10:10:12;97990.78;;;24.20;62.68
13312;BME280;34033;48.672;9.376;2023-07-28T10:12:48;97994.41;;;24.35;62.24
13312;BME280;34033;48.672;9.376;2023-07-28T10:15:15;98001.72;;;24.36;63.15
13312;BME280;34033;48.672;9.376;2023-07-28T10:17:44;97998.25;;;24.32;62.48
13312;BME280;34033;48.672;9.376;2023-07-28T10:23:04;98002.16;;;23.90;59.90
13312;BME280;34033;48.672;9.376;2023-07-28T10:25:32;98012.00;;;23.89;61.12
13312;BME280;34033;48.672;9.376;2023-07-28T10:27:59;98007.28;;;23.86;66.51
13312;BME280;34033;48.672;9.376;2023-07-28T10:30:24;98006.00;;;23.87;67.08
13312;BME280;34033;48.672;9.376;2023-07-28T10:32:50;98007.88;;;24.05;67.70
13312;BME280;34033;48.672;9.376;2023-07-28T10:37:44;98006.47;;;24.59;65.97
13312;BME280;34033;48.672;9.376;2023-07-28T10:42:52;98009.72;;;24.67;65.56
13312;BME280;34033;48.672;9.376;2023-07-28T10:45:18;98010.47;;;24.47;65.59
13312;BME280;34033;48.672;9.376;2023-07-28T10:47:44;98020.50;;;24.13;65.31
13312;BME280;34033;48.672;9.376;2023-07-28T10:50:11;98015.16;;;24.06;66.06
13312;BME280;34033;48.672;9.376;2023-07-28T10:52:40;98013.78;;;24.16;65.66
13312;BME280;34033;48.672;9.376;2023-07-28T10:55:17;98020.13;;;24.20;65.13
13312;BME280;34033;48.672;9.376;2023-07-28T10:57:47;98020.81;;;24.30;65.38
13312;BME280;34033;48.672;9.376;2023-07-28T11:00:16;98008.47;;;24.53;64.21
13312;BME280;34033;48.672;9.376;2023-07-28T11:02:43;98009.19;;;24.83;63.24
13312;BME280;34033;48.672;9.376;2023-07-28T11:05:13;98010.41;;;25.11;62.22
13312;BME280;34033;48.672;9.376;2023-07-28T11:07:43;98016.97;;;24.97;59.78
13312;BME280;34033;48.672;9.376;2023-07-28T11:10:10;98016.69;;;24.95;59.74
13312;BME280;34033;48.672;9.376;2023-07-28T11:12:41;98019.13;;;25.02;59.31
13312;BME280;34033;48.672;9.376;2023-07-28T11:15:12;98012.16;;;24.88;58.50
13312;BME280;34033;48.672;9.376;2023-07-28T11:17:44;98010.09;;;25.09;58.76
13312;BME280;34033;48.672;9.376;2023-07-28T11:20:21;98015.81;;;24.89;59.63
13312;BME280;34033;48.672;9.376;2023-07-28T11:22:53;98006.59;;;25.20;59.19
13312;BME280;34033;48.672;9.376;2023-07-28T11:25:19;98010.50;;;25.57;59.19
13312;BME280;34033;48.672;9.376;2023-07-28T11:27:46;98016.06;;;25.66;58.02
13312;BME280;34033;48.672;9.376;2023-07-28T11:30:13;98008.94;;;25.56;57.46
13312;BME280;34033;48.672;9.376;2023-07-28T11:32:39;98007.19;;;25.85;57.33
13312;BME280;34033;48.672;9.376;2023-07-28T11:35:09;98005.69;;;26.21;56.11
13312;BME280;34033;48.672;9.376;2023-07-28T11:37:36;98006.50;;;25.95;56.04
13312;BME280;34033;48.672;9.376;2023-07-28T11:40:03;98003.03;;;26.11;54.75
13312;BME280;34033;48.672;9.376;2023-07-28T11:42:36;97998.97;;;25.98;54.88
13312;BME280;34033;48.672;9.376;2023-07-28T11:45:03;98009.31;;;25.90;55.77
13312;BME280;34033;48.672;9.376;2023-07-28T11:47:29;98000.03;;;25.54;57.05
13312;BME280;34033;48.672;9.376;2023-07-28T11:49:55;98006.09;;;25.42;57.79
13312;BME280;34033;48.672;9.376;2023-07-28T11:52:23;98002.19;;;25.39;57.45
13312;BME280;34033;48.672;9.376;2023-07-28T11:54:49;98001.59;;;25.15;57.75
13312;BME280;34033;48.672;9.376;2023-07-28T11:57:16;98003.81;;;25.05;58.61
13312;BME280;34033;48.672;9.376;2023-07-28T11:59:41;98007.47;;;25.06;58.64
13312;BME280;34033;48.672;9.376;2023-07-28T12:02:09;98006.03;;;24.96;58.84
13312;BME280;34033;48.672;9.376;2023-07-28T12:04:40;98015.75;;;24.69;59.87
13312;BME280;34033;48.672;9.376;2023-07-28T12:07:16;98012.81;;;24.48;61.11
13312;BME280;34033;48.672;9.376;2023-07-28T12:12:15;98030.06;;;24.39;63.68
13312;BME280;34033;48.672;9.376;2023-07-28T12:14:41;98030.91;;;24.16;62.68
13312;BME280;34033;48.672;9.376;2023-07-28T12:17:20;98044.22;;;24.04;64.21
13312;BME280;34033;48.672;9.376;2023-07-28T12:19:58;98048.22;;;23.83;66.11
13312;BME280;34033;48.672;9.376;2023-07-28T12:22:25;98047.38;;;23.53;66.96
13312;BME280;34033;48.672;9.376;2023-07-28T12:24:50;98048.47;;;23.32;69.21
13312;BME280;34033;48.672;9.376;2023-07-28T12:27:15;98037.22;;;23.28;69.28
13312;BME280;34033;48.672;9.376;2023-07-28T12:29:41;98035.16;;;23.29;68.05
13312;BME280;34033;48.672;9.376;2023-07-28T12:32:07;98035.47;;;23.31;68.73
13312;BME280;34033;48.672;9.376;2023-07-28T12:34:32;98034.09;;;23.26;67.18
13312;BME280;34033;48.672;9.376;2023-07-28T12:36:58;98022.97;;;23.28;67.54
13312;BME280;34033;48.672;9.376;2023-07-28T12:39:23;98020.59;;;23.27;67.10
13312;BME280;34033;48.672;9.376;2023-07-28T12:41:49;98015.31;;;23.35;67.24
13312;BME280;34033;48.672;9.376;2023-07-28T12:44:15;98021.00;;;23.35;67.28
13312;BME280;34033;48.672;9.376;2023-07-28T12:46:40;98003.78;;;23.29;67.32
13312;BME280;34033;48.672;9.376;2023-07-28T12:49:06;98018.16;;;23.35;67.48
13312;BME280;34033;48.672;9.376;2023-07-28T12:51:32;98021.59;;;23.39;66.96
13312;BME280;34033;48.672;9.376;2023-07-28T12:53:57;98022.28;;;23.34;66.06
13312;BME280;34033;48.672;9.376;2023-07-28T12:56:23;98019.38;;;23.43;65.42
13312;BME280;34033;48.672;9.376;2023-07-28T12:58:48;98019.22;;;23.46;66.04
13312;BME280;34033;48.672;9.376;2023-07-28T13:01:13;98021.69;;;23.53;65.76
13312;BME280;34033;48.672;9.376;2023-07-28T13:03:39;98023.88;;;23.58;66.21
13312;BME280;34033;48.672;9.376;2023-07-28T13:06:04;98025.06;;;23.66;65.65
13312;BME280;34033;48.672;9.376;2023-07-28T13:08:29;98020.25;;;23.73;65.06